Hualapai Flat, Nevada Weather observations

Data are for 10 minute period ending at time listed.
 Day   Time   Solar   Ave.   Ave.  Ave.  Vector  Max.   Baro.   Total    
  of    of     Rad.   Air    Rel.  Wind   Wind   Wind  Press.  Precip.   
Year   Day            Temp.  Hum.  Speed  Dir.   Gust                    
2016   (PST)  Kw/m2    F      %     mph   deg.    mph    mb.     in.     
-------------------------------------------------------------------------
 337   19:30   0.00   28.4    60    2.9   349     3.5   884.6    0.00 
 337   19:40   0.00   28.3    59    3.6   334     4.2   884.6    0.00 
 337   19:50   0.00   28.6    57    3.7   324     4.3   884.6    0.00 
 337   20:00   0.00   28.8    57    2.8   321     3.6   884.3    0.00 
 337   20:10   0.00   28.5    56    2.3   302     4.2   884.1    0.00 
 337   20:20   0.00   27.8    57    4.6   310     5.6   884.3    0.00 
 337   20:30   0.00   27.8    58    5.0   311     5.8   884.5    0.00 
 337   20:40   0.00   27.4    62    5.0   291     5.6   884.6    0.00 
 337   20:50   0.00   28.5    62    5.8   274     7.1   884.5    0.00 
 337   21:00   0.00   29.2    62    5.5   270     7.2   884.4    0.00 
 337   21:10   0.00   30.1    60    4.4   288     5.8   884.3    0.00 
 337   21:20   0.00   30.4    60    3.0   299     4.0   884.3    0.00 
 337   21:30   0.00   30.6    59    2.7   293     3.1   884.1    0.00 
 337   21:40   0.00   30.5    59    3.4   294     4.5   884.1    0.00 
 337   21:50   0.00   29.6    61    4.5   289     5.5   884.0    0.00 
 337   22:00   0.00   29.3    61    4.0   290     4.7   884.0    0.00 
 337   22:10   0.00   29.2    62    4.4   284     5.3   884.0    0.00 
 337   22:20   0.00   29.6    62    4.7   296     6.0   884.0    0.00 
 337   22:30   0.00   30.0    61    4.8   296     5.5   884.0    0.00 
 337   22:40   0.00   30.1    62    3.9   293     4.7   884.0    0.00 
 337   22:50   0.00   30.5    61    3.1   281     3.9   884.1    0.00 
 337   23:00   0.00   30.5    61    2.1   190     4.2   884.3    0.00 
 337   23:10   0.00   30.5    61    2.4   178     4.2   884.1    0.00 
 337   23:20   0.00   29.6    62    2.3   158     3.4   884.1    0.00 
 337   23:30   0.00   29.1    62    0.5   168     1.8   884.0    0.00 
 337   23:40   0.00   28.7    63    0.8   175     1.2   883.7    0.00 
 337   23:50   0.00   27.9    63    1.0    76     2.1   883.7    0.00 
 338    0:00   0.00   27.1    63    0.7    67     1.8   883.7    0.00 
 338    0:10   0.00   26.7    64    0.3   316     2.2   883.7    0.00 
 338    0:20   0.00   26.7    66    2.5   330     3.6   883.6    0.00 
 338    0:30   0.00   25.1    66    3.2   359     4.1   883.6    0.00 
 338    0:40   0.00   24.3    67    2.2    16     3.4   883.7    0.00 
 338    0:50   0.00   24.4    67    2.6    19     3.6   883.6    0.00 
 338    1:00   0.00   24.3    68    3.9   353     4.8   883.6    0.00 
 338    1:10   0.00   24.1    69    5.6   330     7.0   883.6    0.00 
 338    1:20   0.00   23.0    71    6.0   336     6.9   883.6    0.00 
 338    1:30   0.00   23.2    71    5.5   328     6.4   883.5    0.00 
 338    1:40   0.00   24.4    69    6.0   328     6.6   883.7    0.00 
 338    1:50   0.00   23.8    69    6.3   303     7.2   883.8    0.00 
 338    2:00   0.00   22.3    72    5.2   292     6.1   883.9    0.00 
 338    2:10   0.00   22.0    74    5.7   287     6.6   883.8    0.00 
 338    2:20   0.00   22.5    73    5.5   273     6.6   883.8    0.00 
 338    2:30   0.00   22.6    73    5.5   268     6.0   883.7    0.00 
 338    2:40   0.00   23.2    72    4.4   262     5.8   883.6    0.00 
 338    2:50   0.00   22.9    71    3.0   258     4.9   883.5    0.00 
 338    3:00   0.00   21.8    73    3.4   257     6.1   883.7    0.00 
 338    3:10   0.00   21.7    74    2.9   243     3.7   883.9    0.00 
 338    3:20   0.00   22.1    73    3.5   276     4.9   883.7    0.00 
 338    3:30   0.00   22.4    72    4.7   292     6.0   883.5    0.00 
 338    3:40   0.00   21.1    73    4.6   328     6.1   883.6    0.00 
 338    3:50   0.00   19.2    74    2.3    11     6.0   883.7    0.00 
 338    4:00   0.00   19.1    77    3.2   332     3.9   883.7    0.00 
 338    4:10   0.00   20.7    77    4.3   335     5.9   883.9    0.00 
 338    4:20   0.00   21.8    77    3.7   328     5.0   883.7    0.00 
 338    4:30   0.00   23.7    74    3.5   315     4.5   883.6    0.00 
 338    4:40   0.00   24.5    73    4.3   334     5.8   883.5    0.00 
 338    4:50   0.00   24.5    72    4.2   319     5.6   883.4    0.00 
 338    5:00   0.00   23.6    72    5.5   296     6.3   883.6    0.00 
 338    5:10   0.00   22.5    74    4.8   316     6.4   883.8    0.00 
 338    5:20   0.00   22.0    75    3.6   337     4.6   883.9    0.00 
 338    5:30   0.00   23.0    72    4.8   300     5.6   883.9    0.00 
 338    5:40   0.00   21.0    75    5.4   287     6.8   884.1    0.00 
 338    5:50   0.00   21.9    74    5.2   292     6.2   884.1    0.00 
 338    6:00   0.00   23.7    72    3.3   346     4.9   884.2    0.00 
 338    6:10   0.00   23.0    71    3.7   350     7.7   884.2    0.00 
 338    6:20   0.00   21.4    71    3.4   357     4.5   884.4    0.00 
 338    6:30   0.00   20.4    73    4.6   298     6.7   884.5    0.00 
 338    6:40   0.00   19.5    76    5.2   274     7.2   884.5    0.00 
 338    6:50   0.00   19.7    75    2.9   271     4.3   884.5    0.00 
 338    7:00   0.00   18.7    77    3.6   265     4.2   884.5    0.00 
 338    7:10   0.01   19.7    77    1.9   275     2.6   884.7    0.00 
 338    7:20   0.02   18.8    77    4.4   289     5.8   884.8    0.00 
 338    7:30   0.05   18.1    79    5.6   299     6.4   884.9    0.00 
 338    7:40   0.08   19.3    79    4.4   303     6.0   885.1    0.00 
 338    7:50   0.08   20.5    78    3.5     2     4.5   885.2    0.00 
 338    8:00   0.09   20.5    78    4.2   336     4.7   885.3    0.00 
 338    8:10   0.14   23.2    76    4.0   320     5.0   885.4    0.00 
 338    8:20   0.17   25.5    72    3.6   314     4.7   885.4    0.00 
 338    8:30   0.20   27.1    69    2.6   313     4.0   885.2    0.00 
 338    8:40   0.22   28.5    66    3.0   325     4.1   885.1    0.00 
 338    8:50   0.25   29.7    63    3.2   326     4.1   885.0    0.00 
 338    9:00   0.27   31.2    61    2.8   346     3.9   885.1    0.00 
 338    9:10   0.29   32.5    60    2.4    11     4.2   884.9    0.00 
 338    9:20   0.31   33.3    57    3.0    77     4.8   884.8    0.00 
 338    9:30   0.26   33.5    54    3.3    88     5.3   884.7    0.00 
 338    9:40   0.29   33.8    53    2.1    96     3.9   884.9    0.00 
 338    9:50   0.37   34.9    51    2.7   125     5.8   885.2    0.00 
 338   10:00   0.37   35.6    48    3.6   135     6.5   885.3    0.00 
 338   10:10   0.40   36.9    47    4.2   148     6.1   885.3    0.00 
 338   10:20   0.41   38.7    45    3.1   161     5.5   885.2    0.00 
 338   10:30   0.42   38.4    42    2.3   135     5.1   885.1    0.00 
 338   10:40   0.38   39.1    41    2.2   144     4.5   885.0    0.00 
 338   10:50   0.39   39.2    40    2.3   100     5.2   884.9    0.00 
 338   11:00   0.45   39.6    39    2.5   137     5.7   884.8    0.00 
 338   11:10   0.28   40.2    39    1.3   286     3.4   884.7    0.00 
 338   11:20   0.46   40.5    38    2.2     8     4.3   884.7    0.00 
 338   11:30   0.46   40.4    38    1.4   100     3.0   884.6    0.00 
 338   11:40   0.46   41.1    37    3.2   100     6.7   884.6    0.00 
 338   11:50   0.46   40.9    37    2.6   123     5.6   884.4    0.00 
 338   12:00   0.46   41.8    36    2.4    81     4.9   884.4    0.00 
 338   12:10   0.45   41.5    36    3.3    89     7.2   884.4    0.00 
 338   12:20   0.45   41.7    36    2.8    74     6.1   884.4    0.00 
 338   12:30   0.44   41.7    35    2.7    38     7.0   884.2    0.00 
 338   12:40   0.37   43.5    35    2.4   135     6.1   884.1    0.00 
 338   12:50   0.38   44.9    32    3.2   146     6.4   884.0    0.00 
 338   13:00   0.39   45.0    32    2.4   147     5.8   883.9    0.00 
 338   13:10   0.32   45.3    31    2.6   134     5.4   883.7    0.00 
 338   13:20   0.27   45.0    32    1.4   124     4.5   883.6    0.00 
 338   13:30   0.34   45.1    33    3.2   126     5.7   883.7    0.00 
 338   13:40   0.36   46.6    33    1.2   199     3.9   883.7    0.00 
 338   13:50   0.34   47.0    32    1.2    34     3.6   883.6    0.00 
 338   14:00   0.29   45.8    33    2.0    11     6.4   883.5    0.00 
 338   14:10   0.29   45.4    34    2.8   111     5.4   883.4    0.00 
 338   14:20   0.17   46.2    34    1.8   132     4.4   883.4    0.00 
 338   14:30   0.16   46.4    33    2.2   128     4.6   883.3    0.00 
 338   14:40   0.22   47.0    33    2.3   165     4.2   883.2    0.00 
 338   14:50   0.23   48.5    32    2.3   175     4.2   883.1    0.00 
 338   15:00   0.22   48.5    32    1.0   282     3.1   883.1    0.00 
 338   15:10   0.18   46.0    33    1.6   349     2.7   883.1    0.00 
 338   15:20   0.20   45.6    34    1.3   356     2.7   883.0    0.00 
 338   15:30   0.17   46.0    34    1.7    13     2.9   882.9    0.00 
 338   15:40   0.12   46.0    34    0.6    19     2.9   882.9    0.00 
 338   15:50   0.11   46.3    34    0.0   286     0.4   883.0    0.00 
 338   16:00   0.03   45.7    34    0.6    64     1.3   883.0    0.00 
 338   16:10   0.02   44.2    35    0.8   133     1.5   882.7    0.00 
 338   16:20   0.02   43.3    36    1.7   170     2.0   882.5    0.00 
 338   16:30   0.01   41.8    38    1.9   163     2.3   882.1    0.00 
 338   16:40   0.01   40.0    40    1.6   181     2.3   881.9    0.00 
 338   16:50   0.00   39.0    42    1.0   197     1.5   881.9    0.00 
 338   17:00   0.00   38.5    42    1.2   215     2.5   882.0    0.00 
 338   17:10   0.00   33.7    48    6.2   296     7.7   882.0    0.00 
 338   17:20   0.00   31.8    53    5.9   296     6.7   882.0    0.00 
 338   17:30   0.00   31.3    54    6.4   290     7.7   882.0    0.00 
 338   17:40   0.00   31.0    56    6.0   294     6.8   882.2    0.00 
 338   17:50   0.00   30.8    56    5.7   292     6.6   882.2    0.00 
 338   18:00   0.00   29.4    58    6.6   294     7.0   882.2    0.00 
 338   18:10   0.00   28.2    60    6.9   293     7.3   882.2    0.00 
 338   18:20   0.00   27.8    62    6.0   288     7.2   882.2    0.00 
 338   18:30   0.00   28.0    62    5.5   293     6.5   882.3    0.00 
 338   18:40   0.00   28.0    62    5.1   299     6.4   882.3    0.00 
 338   18:50   0.00   27.9    63    6.4   297     7.2   882.4    0.00 
 338   19:00   0.00   27.5    63    6.4   297     7.1   882.3    0.00 
 338   19:10   0.00   27.5    64    6.2   303     6.9   882.4    0.00 
 338   19:20   0.00   28.8    62    5.3   322     6.8   882.5    0.00 

Return to Hualapai Flat graphs page.


Western Regional Climate Center,wrcc@dri.edu